createdAt,value
2023-05-01T00:00:58.650Z,0.00
2023-05-01T00:01:58.612Z,0.00
2023-05-01T00:02:58.745Z,0.00
2023-05-01T00:03:58.882Z,0.00
2023-05-01T00:04:58.700Z,0.00
2023-05-01T00:05:58.634Z,0.00
2023-05-01T00:06:58.576Z,0.00
2023-05-01T00:07:58.611Z,0.00
2023-05-01T00:08:58.550Z,0.00
2023-05-01T00:09:58.856Z,0.00
2023-05-01T00:10:58.548Z,0.00
2023-05-01T00:11:58.547Z,0.00
2023-05-01T00:12:58.516Z,0.00
2023-05-01T00:13:58.497Z,0.00
2023-05-01T00:14:58.488Z,0.00
2023-05-01T00:15:58.526Z,0.00
2023-05-01T00:16:58.582Z,0.00
2023-05-01T00:17:58.597Z,0.00
2023-05-01T00:18:58.458Z,0.00
2023-05-01T00:19:58.747Z,0.00
2023-05-01T00:20:58.436Z,0.00
2023-05-01T00:21:58.414Z,0.00
2023-05-01T00:22:58.405Z,0.00
2023-05-01T00:23:58.398Z,0.00
2023-05-01T00:24:58.401Z,0.00
2023-05-01T00:25:58.396Z,0.00
2023-05-01T00:26:58.377Z,0.00
2023-05-01T00:27:58.383Z,0.00
2023-05-01T00:28:58.407Z,0.00
2023-05-01T00:29:58.598Z,0.00
2023-05-01T00:30:58.346Z,0.00
2023-05-01T00:31:58.373Z,0.00
2023-05-01T00:32:58.356Z,0.00
2023-05-01T00:33:58.300Z,0.00
2023-05-01T00:34:58.292Z,0.00
2023-05-01T00:35:58.290Z,0.00
2023-05-01T00:36:58.268Z,0.00
2023-05-01T00:37:58.298Z,0.00
2023-05-01T00:38:58.249Z,0.00
2023-05-01T00:39:58.666Z,0.00
2023-05-01T00:40:58.275Z,0.00
2023-05-01T00:41:58.217Z,0.00
2023-05-01T00:42:58.204Z,0.00
2023-05-01T00:43:58.205Z,0.00
2023-05-01T00:44:58.204Z,0.00
2023-05-01T00:45:58.270Z,0.00
2023-05-01T00:46:58.205Z,0.00
2023-05-01T00:47:58.228Z,0.00
2023-05-01T00:48:58.147Z,0.00
2023-05-01T00:49:58.255Z,0.00
2023-05-01T00:50:58.139Z,0.00
2023-05-01T00:51:58.140Z,0.00
2023-05-01T00:52:58.106Z,0.00
2023-05-01T00:53:58.095Z,0.00
2023-05-01T00:54:58.091Z,0.00
2023-05-01T00:55:58.091Z,0.00
2023-05-01T00:56:58.074Z,0.00
2023-05-01T00:57:58.060Z,0.00
2023-05-01T00:58:58.056Z,0.00
2023-05-01T00:59:58.250Z,0.00
2023-05-01T01:00:58.047Z,0.00
2023-05-01T01:01:58.015Z,0.00
2023-05-01T01:02:58.064Z,0.00
2023-05-01T01:03:58.017Z,0.00
2023-05-01T01:04:58.319Z,0.00
2023-05-01T01:05:58.036Z,0.00
2023-05-01T01:06:57.975Z,0.00
2023-05-01T01:07:57.955Z,0.00
2023-05-01T01:08:57.937Z,0.00
2023-05-01T01:09:58.202Z,0.00
2023-05-01T01:10:57.931Z,0.00
2023-05-01T01:11:57.919Z,0.00
2023-05-01T01:12:57.906Z,0.00
2023-05-01T01:13:57.896Z,0.00
2023-05-01T01:14:57.885Z,0.00
2023-05-01T01:15:57.906Z,0.00
2023-05-01T01:16:57.892Z,0.00
2023-05-01T01:17:57.860Z,0.00
2023-05-01T01:18:57.891Z,0.00
2023-05-01T01:19:58.017Z,0.00
2023-05-01T01:20:57.861Z,0.00
2023-05-01T01:21:57.812Z,0.00
2023-05-01T01:22:57.883Z,0.00
2023-05-01T01:23:57.866Z,0.00
2023-05-01T01:24:57.780Z,0.00
2023-05-01T01:25:57.958Z,0.00
2023-05-01T01:26:57.759Z,0.00
2023-05-01T01:27:57.750Z,0.00
2023-05-01T01:28:57.751Z,0.00
2023-05-01T01:29:57.970Z,0.00
2023-05-01T01:30:57.771Z,0.00
2023-05-01T01:31:57.716Z,0.00
2023-05-01T01:32:57.761Z,0.00
2023-05-01T01:33:57.689Z,0.00
2023-05-01T01:34:57.678Z,0.00
2023-05-01T01:35:57.684Z,0.00
2023-05-01T01:36:57.663Z,0.00
2023-05-01T01:37:57.666Z,0.00
2023-05-01T01:38:57.641Z,0.00
2023-05-01T01:39:57.886Z,0.00
2023-05-01T01:40:57.651Z,0.00
2023-05-01T01:41:57.613Z,0.00
2023-05-01T01:42:57.602Z,0.00
2023-05-01T01:43:57.596Z,0.00
2023-05-01T01:44:57.584Z,0.00
2023-05-01T01:45:57.592Z,0.00
2023-05-01T01:46:57.558Z,0.00
2023-05-01T01:47:57.584Z,0.00
2023-05-01T01:48:57.540Z,0.00
2023-05-01T01:49:57.768Z,0.00
2023-05-01T01:50:57.534Z,0.00
2023-05-01T01:51:57.513Z,0.00
2023-05-01T01:52:57.501Z,0.00
2023-05-01T01:53:57.488Z,0.00
2023-05-01T01:54:58.498Z,0.00
2023-05-01T01:55:57.487Z,0.00
2023-05-01T01:56:57.461Z,0.00
2023-05-01T01:57:57.456Z,0.00
2023-05-01T01:58:57.452Z,0.00
2023-05-01T01:59:57.789Z,0.00
2023-05-01T02:00:57.434Z,0.00
2023-05-01T02:01:57.548Z,0.00
2023-05-01T02:02:57.525Z,0.00
2023-05-01T02:03:57.495Z,0.00
2023-05-01T02:04:57.436Z,0.00
2023-05-01T02:05:57.389Z,0.00
2023-05-01T02:06:57.368Z,0.00
2023-05-01T02:07:57.374Z,0.00
2023-05-01T02:08:57.352Z,0.00
2023-05-01T02:09:57.573Z,0.00
2023-05-01T02:10:58.860Z,0.00
2023-05-01T02:11:57.325Z,0.00
2023-05-01T02:12:57.315Z,0.00
2023-05-01T02:13:57.327Z,0.00
2023-05-01T02:14:57.304Z,0.00
2023-05-01T02:15:57.390Z,0.00
2023-05-01T02:16:57.269Z,0.00
2023-05-01T02:17:57.311Z,0.00
2023-05-01T02:18:57.263Z,0.00
2023-05-01T02:19:57.471Z,0.00
2023-05-01T02:20:57.256Z,0.00
2023-05-01T02:21:57.240Z,0.00
2023-05-01T02:22:57.215Z,0.00
2023-05-01T02:23:57.210Z,0.00
2023-05-01T02:24:57.217Z,0.00
2023-05-01T02:25:57.211Z,0.00
2023-05-01T02:26:57.195Z,0.00
2023-05-01T02:27:57.166Z,0.00
2023-05-01T02:28:57.153Z,0.00
2023-05-01T02:29:57.387Z,0.00
2023-05-01T02:30:57.157Z,0.00
2023-05-01T02:31:57.316Z,0.00
2023-05-01T02:32:57.153Z,0.00
2023-05-01T02:33:57.112Z,0.00
2023-05-01T02:34:57.094Z,0.00
2023-05-01T02:35:57.097Z,0.00
2023-05-01T02:36:57.088Z,0.00
2023-05-01T02:37:57.067Z,0.00
2023-05-01T02:38:57.071Z,0.00
2023-05-01T02:39:57.245Z,0.00
2023-05-01T02:40:57.155Z,0.00
2023-05-01T02:41:57.021Z,0.00
2023-05-01T02:42:57.029Z,0.00
2023-05-01T02:43:57.008Z,0.00
2023-05-01T02:44:57.006Z,0.00
2023-05-01T02:45:57.020Z,0.00
2023-05-01T02:46:57.065Z,0.00
2023-05-01T02:47:57.024Z,0.00
2023-05-01T02:48:56.958Z,0.00
2023-05-01T02:49:57.161Z,0.00
2023-05-01T02:50:56.951Z,0.00
2023-05-01T02:51:56.943Z,0.00
2023-05-01T02:52:56.924Z,0.00
2023-05-01T02:53:56.910Z,0.00
2023-05-01T02:54:56.889Z,0.00
2023-05-01T02:55:57.895Z,0.00
2023-05-01T02:56:56.894Z,0.00
2023-05-01T02:57:56.869Z,0.00
2023-05-01T02:58:56.877Z,0.00
2023-05-01T02:59:57.088Z,0.00
2023-05-01T03:00:56.864Z,0.00
2023-05-01T03:01:56.840Z,0.00
2023-05-01T03:02:56.933Z,0.00
2023-05-01T03:03:56.841Z,0.00
2023-05-01T03:04:56.800Z,0.00
2023-05-01T03:05:56.824Z,0.00
2023-05-01T03:06:56.793Z,0.00
2023-05-01T03:07:56.767Z,0.00
2023-05-01T03:08:56.760Z,0.00
2023-05-01T03:09:57.051Z,0.00
2023-05-01T03:10:56.759Z,0.00
2023-05-01T03:11:56.736Z,0.00
2023-05-01T03:12:56.721Z,0.00
2023-05-01T03:13:56.722Z,0.00
2023-05-01T03:14:56.698Z,0.00
2023-05-01T03:15:56.725Z,0.00
2023-05-01T03:16:56.687Z,0.00
2023-05-01T03:17:56.757Z,0.00
2023-05-01T03:18:56.654Z,0.00
2023-05-01T03:19:56.957Z,0.00
2023-05-01T03:20:56.666Z,0.00
2023-05-01T03:21:56.633Z,0.00
2023-05-01T03:22:56.625Z,0.00
2023-05-01T03:23:56.618Z,0.00
2023-05-01T03:24:56.603Z,0.00
2023-05-01T03:25:56.604Z,0.00
2023-05-01T03:26:56.600Z,4.00
2023-05-01T03:27:56.573Z,4.00
2023-05-01T03:28:56.567Z,0.00
2023-05-01T03:29:56.731Z,0.00
2023-05-01T03:30:56.559Z,4.00
2023-05-01T03:31:56.544Z,0.00
2023-05-01T03:32:56.634Z,4.00
2023-05-01T03:33:56.519Z,0.00
2023-05-01T03:34:56.557Z,0.00
2023-05-01T03:35:56.508Z,4.00
2023-05-01T03:36:56.497Z,4.00
2023-05-01T03:37:56.513Z,8.00
2023-05-01T03:38:56.462Z,8.00
2023-05-01T03:39:56.695Z,8.00
2023-05-01T03:40:56.457Z,8.00
2023-05-01T03:41:56.447Z,8.00
2023-05-01T03:42:56.424Z,12.00
2023-05-01T03:43:56.413Z,12.00
2023-05-01T03:44:56.413Z,16.00
2023-05-01T03:45:56.425Z,16.00
2023-05-01T03:46:56.388Z,20.00
2023-05-01T03:47:56.425Z,24.00
2023-05-01T03:48:56.373Z,28.00
2023-05-01T03:49:56.521Z,28.00
2023-05-01T03:50:57.355Z,28.00
2023-05-01T03:51:56.336Z,32.00
2023-05-01T03:52:56.322Z,36.00
2023-05-01T03:53:56.319Z,40.00
2023-05-01T03:54:56.301Z,40.00
2023-05-01T03:55:56.305Z,44.00
2023-05-01T03:56:56.278Z,48.00
2023-05-01T03:57:56.274Z,52.00
2023-05-01T03:58:56.266Z,56.00
2023-05-01T03:59:56.579Z,60.00
2023-05-01T04:00:56.259Z,68.00
2023-05-01T04:01:56.283Z,76.00
2023-05-01T04:02:57.436Z,84.00
2023-05-01T04:03:56.308Z,88.00
2023-05-01T04:04:56.201Z,96.00
2023-05-01T04:05:56.289Z,104.00
2023-05-01T04:06:56.192Z,108.00
2023-05-01T04:07:56.180Z,120.00
2023-05-01T04:08:56.185Z,124.00
2023-05-01T04:09:56.338Z,136.00
2023-05-01T04:10:56.151Z,144.00
2023-05-01T04:11:56.134Z,152.00
2023-05-01T04:12:56.124Z,168.00
2023-05-01T04:13:56.119Z,176.00
2023-05-01T04:14:56.123Z,188.00
2023-05-01T04:15:56.187Z,200.00
2023-05-01T04:16:56.086Z,212.00
2023-05-01T04:17:56.103Z,224.00
2023-05-01T04:18:56.073Z,236.00
2023-05-01T04:19:56.453Z,252.00
2023-05-01T04:20:56.052Z,264.00
2023-05-01T04:21:57.042Z,280.00
2023-05-01T04:22:56.045Z,296.00
2023-05-01T04:23:56.022Z,312.00
2023-05-01T04:24:56.031Z,328.00
2023-05-01T04:25:56.014Z,348.00
2023-05-01T04:26:55.988Z,368.00
2023-05-01T04:27:55.981Z,384.00
2023-05-01T04:28:55.968Z,396.00
2023-05-01T04:29:56.119Z,412.00
2023-05-01T04:30:55.953Z,424.00
2023-05-01T04:31:55.960Z,444.00
2023-05-01T04:32:55.944Z,464.00
2023-05-01T04:33:55.922Z,488.00
2023-05-01T04:34:55.930Z,508.00
2023-05-01T04:35:55.911Z,516.00
2023-05-01T04:36:55.892Z,532.00
2023-05-01T04:37:55.898Z,552.00
2023-05-01T04:38:55.881Z,572.00
2023-05-01T04:39:56.352Z,596.00
2023-05-01T04:40:55.854Z,616.00
2023-05-01T04:41:55.841Z,632.00
2023-05-01T04:42:55.825Z,660.00
2023-05-01T04:43:55.825Z,684.00
2023-05-01T04:44:55.820Z,712.00
2023-05-01T04:45:55.818Z,740.00
2023-05-01T04:46:55.804Z,764.00
2023-05-01T04:47:55.828Z,788.00
2023-05-01T04:48:55.780Z,800.00
2023-05-01T04:49:55.967Z,792.00
2023-05-01T04:50:55.764Z,800.00
2023-05-01T04:51:55.732Z,816.00
2023-05-01T04:52:55.746Z,840.00
2023-05-01T04:53:55.735Z,872.00
2023-05-01T04:54:55.714Z,912.00
2023-05-01T04:55:55.733Z,928.00
2023-05-01T04:56:55.692Z,976.00
2023-05-01T04:57:55.687Z,1052.00
2023-05-01T04:58:55.687Z,1064.00
2023-05-01T04:59:55.961Z,1084.00
2023-05-01T05:00:55.665Z,1120.00
2023-05-01T05:01:55.700Z,1164.00
2023-05-01T05:02:55.704Z,1168.00
2023-05-01T05:03:55.691Z,1184.00
2023-05-01T05:04:55.616Z,1228.00
2023-05-01T05:05:55.617Z,1176.00
2023-05-01T05:06:55.622Z,1128.00
2023-05-01T05:07:55.584Z,1136.00
2023-05-01T05:08:55.573Z,1144.00
2023-05-01T05:09:55.848Z,1140.00
2023-05-01T05:10:55.565Z,1152.00
2023-05-01T05:11:55.551Z,1152.00
2023-05-01T05:12:55.552Z,1152.00
2023-05-01T05:13:55.530Z,1152.00
2023-05-01T05:14:55.523Z,1164.00
2023-05-01T05:15:55.566Z,1172.00
2023-05-01T05:16:55.541Z,1180.00
2023-05-01T05:17:56.755Z,1196.00
2023-05-01T05:18:56.480Z,1204.00
2023-05-01T05:19:55.662Z,1228.00
2023-05-01T05:20:55.473Z,1244.00
2023-05-01T05:21:55.449Z,1248.00
2023-05-01T05:22:55.443Z,1264.00
2023-05-01T05:23:55.435Z,1268.00
2023-05-01T05:24:55.420Z,1280.00
2023-05-01T05:25:55.433Z,1300.00
2023-05-01T05:26:55.396Z,1320.00
2023-05-01T05:27:55.426Z,1340.00
2023-05-01T05:28:55.377Z,1364.00
2023-05-01T05:29:55.553Z,1392.00
2023-05-01T05:30:55.529Z,1416.00
2023-05-01T05:31:55.373Z,1452.00
2023-05-01T05:32:55.397Z,1480.00
2023-05-01T05:33:55.326Z,1512.00
2023-05-01T05:34:55.318Z,1540.00
2023-05-01T05:35:55.322Z,1576.00
2023-05-01T05:36:55.304Z,1612.00
2023-05-01T05:37:56.284Z,1656.00
2023-05-01T05:38:55.281Z,1704.00
2023-05-01T05:39:55.541Z,1736.00
2023-05-01T05:40:55.252Z,1784.00
2023-05-01T05:41:55.259Z,1828.00
2023-05-01T05:42:55.237Z,1884.00
2023-05-01T05:43:55.234Z,1932.00
2023-05-01T05:44:55.226Z,1984.00
2023-05-01T05:45:55.223Z,2016.00
2023-05-01T05:46:56.216Z,2112.00
2023-05-01T05:47:55.216Z,2164.00
2023-05-01T05:48:55.179Z,2220.00
2023-05-01T05:49:55.335Z,2272.00
2023-05-01T05:50:55.184Z,2356.00
2023-05-01T05:51:55.159Z,2428.00
2023-05-01T05:52:55.135Z,2536.00
2023-05-01T05:53:55.159Z,2708.00
2023-05-01T05:54:55.115Z,2724.00
2023-05-01T05:55:55.112Z,2584.00
2023-05-01T05:56:55.107Z,2540.00
2023-05-01T05:57:55.101Z,2532.00
2023-05-01T05:58:55.076Z,2436.00
2023-05-01T05:59:55.482Z,2428.00
2023-05-01T06:00:55.057Z,2540.00
2023-05-01T06:01:55.068Z,2536.00
2023-05-01T06:02:55.256Z,2552.00
2023-05-01T06:03:55.058Z,2740.00
2023-05-01T06:04:55.010Z,3164.00
2023-05-01T06:05:55.118Z,3208.00
2023-05-01T06:06:55.121Z,3036.00
2023-05-01T06:07:54.988Z,2596.00
2023-05-01T06:08:54.972Z,2768.00
2023-05-01T06:09:55.267Z,2752.00
2023-05-01T06:10:54.985Z,2700.00
2023-05-01T06:11:54.963Z,2720.00
2023-05-01T06:13:03.022Z,2684.00
2023-05-01T06:13:55.926Z,2720.00
2023-05-01T06:14:54.929Z,2812.00
2023-05-01T06:15:54.967Z,2860.00
2023-05-01T06:16:54.905Z,2960.00
2023-05-01T06:17:54.931Z,3084.00
2023-05-01T06:18:54.872Z,3412.00
2023-05-01T06:19:55.130Z,3628.00
2023-05-01T06:20:54.854Z,3760.00
2023-05-01T06:21:54.852Z,4220.00
2023-05-01T06:22:54.839Z,4660.00
2023-05-01T06:23:54.834Z,4680.00
2023-05-01T06:24:54.870Z,4196.00
2023-05-01T06:25:54.855Z,4260.00
2023-05-01T06:26:54.846Z,4416.00
2023-05-01T06:27:54.793Z,4196.00
2023-05-01T06:28:54.770Z,3976.00
2023-05-01T06:29:55.008Z,3776.00
2023-05-01T06:30:54.801Z,3696.00
2023-05-01T06:31:54.804Z,3616.00
2023-05-01T06:32:54.824Z,3648.00
2023-05-01T06:33:54.725Z,3636.00
2023-05-01T06:34:54.709Z,3524.00
2023-05-01T06:35:54.717Z,3564.00
2023-05-01T06:36:54.700Z,3536.00
2023-05-01T06:37:54.680Z,3544.00
2023-05-01T06:38:54.669Z,3420.00
2023-05-01T06:39:55.188Z,3328.00
2023-05-01T06:40:54.646Z,3536.00
2023-05-01T06:41:54.651Z,3608.00
2023-05-01T06:42:54.637Z,3592.00
2023-05-01T06:43:54.619Z,3600.00
2023-05-01T06:44:54.604Z,3544.00
2023-05-01T06:45:54.597Z,3720.00
2023-05-01T06:46:54.630Z,3644.00
2023-05-01T06:47:54.660Z,3844.00
2023-05-01T06:48:54.584Z,3928.00
2023-05-01T06:49:54.699Z,4008.00
2023-05-01T06:50:54.545Z,4096.00
2023-05-01T06:51:54.552Z,4116.00
2023-05-01T06:52:54.537Z,4208.00
2023-05-01T06:53:54.521Z,4224.00
2023-05-01T06:54:54.514Z,4132.00
2023-05-01T06:55:54.501Z,3920.00
2023-05-01T06:56:54.500Z,3812.00
2023-05-01T06:57:54.487Z,3820.00
2023-05-01T06:58:54.467Z,3784.00
2023-05-01T06:59:54.629Z,3808.00
2023-05-01T07:00:54.530Z,3816.00
2023-05-01T07:01:54.479Z,3844.00
2023-05-01T07:02:54.478Z,3956.00
2023-05-01T07:03:54.413Z,3924.00
2023-05-01T07:04:54.399Z,4084.00
2023-05-01T07:05:54.392Z,3992.00
2023-05-01T07:06:54.415Z,4040.00
2023-05-01T07:08:01.125Z,3964.00
2023-05-01T07:08:56.366Z,4056.00
2023-05-01T07:09:54.664Z,4140.00
2023-05-01T07:10:54.343Z,3948.00
2023-05-01T07:11:54.348Z,3952.00
2023-05-01T07:12:54.324Z,3984.00
2023-05-01T07:13:54.323Z,3924.00
2023-05-01T07:14:54.359Z,4052.00
2023-05-01T07:15:54.631Z,4092.00
2023-05-01T07:16:55.385Z,4080.00
2023-05-01T07:17:54.325Z,4100.00
2023-05-01T07:18:54.261Z,4048.00
2023-05-01T07:19:54.412Z,4156.00
2023-05-01T07:20:54.239Z,4408.00
2023-05-01T07:21:54.237Z,4436.00
2023-05-01T07:22:54.219Z,4500.00
2023-05-01T07:23:54.207Z,4628.00
2023-05-01T07:24:54.188Z,4492.00
2023-05-01T07:25:54.186Z,4472.00
2023-05-01T07:26:54.192Z,4616.00
2023-05-01T07:27:54.194Z,4584.00
2023-05-01T07:28:54.167Z,4376.00
2023-05-01T07:29:54.431Z,4456.00
2023-05-01T07:30:54.136Z,4540.00
2023-05-01T07:31:54.194Z,4540.00
2023-05-01T07:32:54.158Z,4476.00
2023-05-01T07:33:54.307Z,4404.00
2023-05-01T07:34:55.110Z,4464.00
2023-05-01T07:35:54.075Z,4388.00
2023-05-01T07:36:54.084Z,4352.00
2023-05-01T07:37:54.055Z,4356.00
2023-05-01T07:38:54.049Z,4344.00
2023-05-01T07:39:54.240Z,4520.00
2023-05-01T07:40:54.032Z,4568.00
2023-05-01T07:41:54.030Z,4644.00
2023-05-01T07:42:54.657Z,4648.00
2023-05-01T07:43:55.001Z,4632.00
2023-05-01T07:44:53.995Z,4648.00
2023-05-01T07:45:53.999Z,4700.00
2023-05-01T07:46:53.978Z,4716.00
2023-05-01T07:47:53.975Z,4732.00
2023-05-01T07:48:53.999Z,4732.00
2023-05-01T07:49:54.082Z,4792.00
2023-05-01T07:50:53.918Z,4820.00
2023-05-01T07:51:53.927Z,4904.00
2023-05-01T07:52:53.917Z,4900.00
2023-05-01T07:53:53.901Z,4808.00
2023-05-01T07:54:53.884Z,4704.00
2023-05-01T07:55:53.872Z,4648.00
2023-05-01T07:56:53.882Z,4640.00
2023-05-01T07:57:53.856Z,4672.00
2023-05-01T07:58:53.850Z,4656.00
2023-05-01T07:59:54.013Z,4668.00
2023-05-01T08:00:53.832Z,4696.00
2023-05-01T08:01:53.906Z,4744.00
2023-05-01T08:02:53.972Z,4772.00
2023-05-01T08:03:53.882Z,4780.00
2023-05-01T08:04:53.975Z,4804.00
2023-05-01T08:05:53.773Z,4816.00
2023-05-01T08:06:53.896Z,4828.00
2023-05-01T08:07:53.754Z,4856.00
2023-05-01T08:08:53.755Z,4864.00
2023-05-01T08:09:53.807Z,4868.00
2023-05-01T08:10:53.722Z,4836.00
2023-05-01T08:11:53.738Z,4836.00
2023-05-01T08:12:53.709Z,4872.00
2023-05-01T08:13:53.694Z,4944.00
2023-05-01T08:14:53.700Z,4996.00
2023-05-01T08:15:53.703Z,5040.00
2023-05-01T08:16:53.680Z,5076.00
2023-05-01T08:17:53.758Z,5104.00
2023-05-01T08:18:53.667Z,5136.00
2023-05-01T08:19:53.774Z,5156.00
2023-05-01T08:20:53.627Z,5148.00
2023-05-01T08:21:53.634Z,5184.00
2023-05-01T08:22:53.616Z,5204.00
2023-05-01T08:23:53.605Z,5180.00
2023-05-01T08:24:53.599Z,5160.00
2023-05-01T08:25:53.593Z,5140.00
2023-05-01T08:26:53.587Z,5084.00
2023-05-01T08:27:53.572Z,5044.00
2023-05-01T08:28:53.556Z,5036.00
2023-05-01T08:29:53.575Z,5020.00
2023-05-01T08:30:53.546Z,5016.00
2023-05-01T08:31:53.563Z,4988.00
2023-05-01T08:32:53.588Z,4944.00
2023-05-01T08:33:53.501Z,4852.00
2023-05-01T08:34:53.496Z,4820.00
2023-05-01T08:35:53.496Z,4816.00
2023-05-01T08:36:53.487Z,4856.00
2023-05-01T08:37:53.550Z,4928.00
2023-05-01T08:38:53.457Z,4952.00
2023-05-01T08:39:53.452Z,4960.00
2023-05-01T08:40:53.483Z,4912.00
2023-05-01T08:41:53.429Z,4860.00
2023-05-01T08:42:53.413Z,4888.00
2023-05-01T08:43:53.402Z,4940.00
2023-05-01T08:44:53.405Z,4984.00
2023-05-01T08:45:53.379Z,4984.00
2023-05-01T08:46:53.409Z,4952.00
2023-05-01T08:47:53.401Z,4940.00
2023-05-01T08:48:53.344Z,4928.00
2023-05-01T08:49:53.355Z,4948.00
2023-05-01T08:50:53.322Z,4968.00
2023-05-01T08:51:53.324Z,4964.00
2023-05-01T08:52:54.302Z,4948.00
2023-05-01T08:53:53.299Z,4976.00
2023-05-01T08:54:53.290Z,5008.00
2023-05-01T08:55:53.366Z,5092.00
2023-05-01T08:56:53.284Z,5192.00
2023-05-01T08:57:53.275Z,5220.00
2023-05-01T08:58:53.249Z,5288.00
2023-05-01T08:59:53.254Z,5348.00
2023-05-01T09:00:53.274Z,5372.00
2023-05-01T09:01:53.298Z,5380.00
2023-05-01T09:02:53.238Z,5412.00
2023-05-01T09:03:53.247Z,5420.00
2023-05-01T09:04:53.194Z,5424.00
2023-05-01T09:05:53.186Z,5436.00
2023-05-01T09:06:53.219Z,5384.00
2023-05-01T09:07:53.156Z,5408.00
2023-05-01T09:08:53.144Z,5448.00
2023-05-01T09:09:53.231Z,5408.00
2023-05-01T09:10:53.131Z,5352.00
2023-05-01T09:11:53.146Z,5280.00
2023-05-01T09:12:53.100Z,5208.00
2023-05-01T09:13:53.102Z,5140.00
2023-05-01T09:14:53.094Z,5056.00
2023-05-01T09:15:53.130Z,4948.00
2023-05-01T09:16:53.134Z,4848.00
2023-05-01T09:17:53.074Z,4756.00
2023-05-01T09:18:53.045Z,4668.00
2023-05-01T09:19:53.035Z,4616.00
2023-05-01T09:20:53.045Z,4604.00
2023-05-01T09:21:53.027Z,4540.00
2023-05-01T09:22:53.002Z,4456.00
2023-05-01T09:23:52.985Z,4468.00
2023-05-01T09:24:52.976Z,4428.00
2023-05-01T09:25:52.972Z,4396.00
2023-05-01T09:26:52.968Z,4356.00
2023-05-01T09:27:52.951Z,4252.00
2023-05-01T09:28:52.952Z,4188.00
2023-05-01T09:29:52.943Z,4108.00
2023-05-01T09:30:52.928Z,4212.00
2023-05-01T09:31:53.054Z,4332.00
2023-05-01T09:32:52.951Z,4440.00
2023-05-01T09:33:52.894Z,4480.00
2023-05-01T09:34:52.887Z,4504.00
2023-05-01T09:35:52.878Z,4604.00
2023-05-01T09:36:52.880Z,4632.00
2023-05-01T09:37:52.861Z,4624.00
2023-05-01T09:38:52.845Z,4628.00
2023-05-01T09:39:52.838Z,4732.00
2023-05-01T09:40:52.824Z,4728.00
2023-05-01T09:41:52.829Z,4776.00
2023-05-01T09:42:52.827Z,4760.00
2023-05-01T09:43:52.821Z,4796.00
2023-05-01T09:44:52.794Z,5012.00
2023-05-01T09:45:52.831Z,5300.00
2023-05-01T09:46:52.777Z,5400.00
2023-05-01T09:47:52.792Z,5508.00
2023-05-01T09:48:52.757Z,5656.00
2023-05-01T09:49:52.755Z,5440.00
2023-05-01T09:50:52.737Z,5412.00
2023-05-01T09:51:52.743Z,5700.00
2023-05-01T09:52:52.716Z,5732.00
2023-05-01T09:53:52.704Z,5744.00
2023-05-01T09:54:52.716Z,5884.00
2023-05-01T09:55:52.683Z,6136.00
2023-05-01T09:56:52.688Z,6080.00
2023-05-01T09:57:52.673Z,6168.00
2023-05-01T09:58:52.662Z,6220.00
2023-05-01T09:59:52.658Z,6428.00
2023-05-01T10:00:52.702Z,6604.00
2023-05-01T10:01:52.801Z,6696.00
2023-05-01T10:02:52.739Z,6600.00
2023-05-01T10:03:52.680Z,6548.00
2023-05-01T10:04:52.608Z,6612.00
2023-05-01T10:05:52.588Z,6724.00
2023-05-01T10:06:52.629Z,6636.00
2023-05-01T10:07:52.581Z,6576.00
2023-05-01T10:08:52.593Z,6520.00
2023-05-01T10:09:52.568Z,6500.00
2023-05-01T10:10:52.537Z,6532.00
2023-05-01T10:11:52.556Z,6772.00
2023-05-01T10:12:52.523Z,6564.00
2023-05-01T10:13:52.513Z,6984.00
2023-05-01T10:14:52.542Z,7236.00
2023-05-01T10:15:52.493Z,7656.00
2023-05-01T10:16:52.693Z,7956.00
2023-05-01T10:17:52.607Z,8556.00
2023-05-01T10:18:52.466Z,9292.00
2023-05-01T10:19:52.455Z,8968.00
2023-05-01T10:20:52.457Z,9424.00
2023-05-01T10:21:52.437Z,10184.00
2023-05-01T10:22:52.424Z,10364.00
2023-05-01T10:23:52.438Z,11840.00
2023-05-01T10:24:52.575Z,12776.00
2023-05-01T10:25:52.484Z,13072.00
2023-05-01T10:26:52.395Z,12972.00
2023-05-01T10:27:52.371Z,13868.00
2023-05-01T10:28:52.361Z,13600.00
2023-05-01T10:29:52.359Z,12920.00
2023-05-01T10:30:52.374Z,13408.00
2023-05-01T10:31:53.523Z,15456.00
2023-05-01T10:32:52.346Z,14856.00
2023-05-01T10:33:52.436Z,15200.00
2023-05-01T10:34:52.296Z,12376.00
2023-05-01T10:35:52.300Z,12200.00
2023-05-01T10:36:52.297Z,16576.00
2023-05-01T10:37:52.280Z,11300.00
2023-05-01T10:38:52.322Z,12684.00
2023-05-01T10:39:52.259Z,11292.00
2023-05-01T10:40:52.257Z,12856.00
2023-05-01T10:41:52.252Z,14140.00
2023-05-01T10:42:52.233Z,13932.00
2023-05-01T10:43:52.223Z,15904.00
2023-05-01T10:44:52.236Z,13456.00
2023-05-01T10:45:52.235Z,14728.00
2023-05-01T10:46:52.217Z,15968.00
2023-05-01T10:47:52.213Z,14092.00
2023-05-01T10:48:52.392Z,12792.00
2023-05-01T10:49:52.156Z,13276.00
2023-05-01T10:50:52.150Z,10884.00
2023-05-01T10:51:52.477Z,13584.00
2023-05-01T10:52:52.134Z,16864.00
2023-05-01T10:53:52.118Z,18624.00
2023-05-01T10:54:52.137Z,18368.00
2023-05-01T10:55:52.111Z,18336.00
2023-05-01T10:56:52.254Z,18176.00
2023-05-01T10:57:52.092Z,17408.00
2023-05-01T10:58:52.084Z,16192.00
2023-05-01T10:59:52.059Z,16832.00
2023-05-01T11:00:52.051Z,14156.00
2023-05-01T11:01:52.218Z,14284.00
2023-05-01T11:02:52.094Z,18272.00
2023-05-01T11:03:52.028Z,17152.00
2023-05-01T11:04:52.176Z,12040.00
2023-05-01T11:05:52.007Z,12740.00
2023-05-01T11:06:52.027Z,15648.00
2023-05-01T11:07:51.991Z,13780.00
2023-05-01T11:08:51.976Z,13804.00
2023-05-01T11:09:51.971Z,12968.00
2023-05-01T11:10:52.013Z,14148.00
2023-05-01T11:11:51.971Z,13484.00
2023-05-01T11:12:52.167Z,13040.00
2023-05-01T11:13:52.116Z,12372.00
2023-05-01T11:14:51.985Z,11092.00
2023-05-01T11:15:51.969Z,10956.00
2023-05-01T11:16:51.947Z,10176.00
2023-05-01T11:17:52.036Z,10140.00
2023-05-01T11:18:51.989Z,11084.00
2023-05-01T11:19:51.895Z,12044.00
2023-05-01T11:20:51.860Z,11456.00
2023-05-01T11:21:52.061Z,13744.00
2023-05-01T11:22:51.850Z,11728.00
2023-05-01T11:23:51.827Z,10068.00
2023-05-01T11:24:51.816Z,10648.00
2023-05-01T11:25:51.807Z,11412.00
2023-05-01T11:26:51.803Z,11316.00
2023-05-01T11:27:51.803Z,10824.00
2023-05-01T11:28:51.780Z,9448.00
2023-05-01T11:29:51.933Z,10528.00
2023-05-01T11:30:51.766Z,10384.00
2023-05-01T11:31:51.785Z,9748.00
2023-05-01T11:32:51.885Z,12236.00
2023-05-01T11:33:51.739Z,12980.00
2023-05-01T11:34:51.719Z,12796.00
2023-05-01T11:35:51.712Z,11356.00
2023-05-01T11:36:52.305Z,13096.00
2023-05-01T11:37:51.705Z,14432.00
2023-05-01T11:38:51.743Z,11520.00
2023-05-01T11:39:51.686Z,10236.00
2023-05-01T11:40:51.674Z,9720.00
2023-05-01T11:41:51.694Z,9808.00
2023-05-01T11:42:51.665Z,11048.00
2023-05-01T11:43:51.647Z,15008.00
2023-05-01T11:44:51.626Z,11184.00
2023-05-01T11:45:51.689Z,12344.00
2023-05-01T11:46:51.609Z,8600.00
2023-05-01T11:47:51.723Z,8928.00
2023-05-01T11:48:51.593Z,9556.00
2023-05-01T11:49:51.579Z,10432.00
2023-05-01T11:50:51.581Z,10156.00
2023-05-01T11:51:51.571Z,9268.00
2023-05-01T11:52:51.566Z,10260.00
2023-05-01T11:53:51.676Z,9448.00
2023-05-01T11:54:51.534Z,11800.00
2023-05-01T11:55:51.635Z,7496.00
2023-05-01T11:56:51.513Z,7664.00
2023-05-01T11:57:51.525Z,11924.00
2023-05-01T11:58:51.498Z,10164.00
2023-05-01T11:59:51.489Z,12760.00
2023-05-01T12:00:51.564Z,10764.00
2023-05-01T12:01:52.508Z,10608.00
2023-05-01T12:02:51.652Z,13668.00
2023-05-01T12:03:51.509Z,15392.00
2023-05-01T12:04:51.581Z,12548.00
2023-05-01T12:05:51.431Z,20320.00
2023-05-01T12:06:51.546Z,17632.00
2023-05-01T12:07:51.430Z,12060.00
2023-05-01T12:08:51.424Z,11648.00
2023-05-01T12:09:51.393Z,10536.00
2023-05-01T12:10:51.382Z,12412.00
2023-05-01T12:11:52.536Z,11424.00
2023-05-01T12:12:52.387Z,12172.00
2023-05-01T12:13:51.354Z,16096.00
2023-05-01T12:14:51.342Z,11924.00
2023-05-01T12:15:51.351Z,16288.00
2023-05-01T12:16:51.347Z,15168.00
2023-05-01T12:17:51.372Z,15712.00
2023-05-01T12:18:51.379Z,7116.00
2023-05-01T12:19:51.309Z,5980.00
2023-05-01T12:20:51.351Z,5600.00
2023-05-01T12:21:51.277Z,8444.00
2023-05-01T12:22:51.279Z,5552.00
2023-05-01T12:23:51.304Z,5288.00
2023-05-01T12:24:51.256Z,5220.00
2023-05-01T12:25:51.244Z,5480.00